Terminal Aerodrome Forecast
Issued by NWS Grand Forks, ND

Home | Current Version | Previous Version | Graphics & Text | Print | Product List | Glossary On
Versions: 1 2 3 4 5 6 7 8 9 10 11 12 13 14 15 16 17 18
000
FTUS43 KFGF 251500 AAA
TAFFAR
TAF AMD
KFAR 251504Z 2515/2612 11010KT P6SM OVC035
      TEMPO 2515/2517 OVC025
     FM252000 11012KT P6SM OVC035=

USA.gov is the U.S. government's official web portal to all federal, state and local government web resources and services.